Time;durP1;ratioP1;P1;durP2;ratioP2;P2;SDS_P1;SDS_P2;PMS_P1;PMS_P2;Temp;Humidity;BMP_temperature;BMP_pressure;BME280_temperature;BME280_humidity;BME280_pressure;Samples;Min_cycle;Max_cycle;Signal;HPM_P1;HPM_P2
2022/05/28 00:01:48;;;;;;;;;4.00;4.00;;;;;22.22;42.11;100135.90;110305;1264;22705;-48
2022/05/28 00:04:15;;;;;;;;;4.00;4.00;;;;;22.21;42.20;100137.36;110290;1264;18719;-48
2022/05/28 00:06:42;;;;;;;;;4.00;4.00;;;;;22.22;42.27;100137.88;110238;1263;19630;-47
2022/05/28 00:09:10;;;;;;;;;5.00;4.00;;;;;22.21;42.14;100134.89;110279;1263;18624;-48
2022/05/28 00:11:37;;;;;;;;;2.00;2.00;;;;;22.20;42.12;100140.73;110278;1264;19106;-47
2022/05/28 00:14:04;;;;;;;;;2.67;2.67;;;;;22.20;42.31;100138.97;110294;1264;19785;-48
2022/05/28 00:16:31;;;;;;;;;4.67;4.00;;;;;22.21;42.03;100138.38;110219;1264;19961;-49
2022/05/28 00:18:59;;;;;;;;;4.00;4.00;;;;;22.20;42.20;100137.66;110288;1263;18713;-48
2022/05/28 00:21:27;;;;;;;;;4.00;4.00;;;;;22.21;42.21;100132.88;110096;1262;19525;-48
2022/05/28 00:23:54;;;;;;;;;5.00;2.00;;;;;22.21;42.27;100132.45;110272;1264;18645;-52
2022/05/28 00:26:22;;;;;;;;;2.00;2.00;;;;;22.21;42.19;100132.55;110271;1263;19129;-49
2022/05/28 00:28:50;;;;;;;;;4.00;4.00;;;;;22.21;42.27;100130.36;110250;1264;19531;-47
2022/05/28 00:31:17;;;;;;;;;3.00;2.67;;;;;22.21;42.33;100132.49;110284;1264;18463;-50
2022/05/28 00:33:44;;;;;;;;;4.33;3.33;;;;;22.20;42.19;100122.67;110285;1263;19035;-46
2022/05/28 00:36:12;;;;;;;;;5.00;4.00;;;;;22.20;42.23;100120.07;110307;1264;19604;-47
2022/05/28 00:38:39;;;;;;;;;4.00;4.00;;;;;22.18;42.03;100119.55;110270;1264;18846;-44
2022/05/28 00:41:06;;;;;;;;;4.00;4.00;;;;;22.19;42.31;100120.98;110257;1264;21887;-44
2022/05/28 00:43:33;;;;;;;;;2.00;2.00;;;;;22.19;42.15;100119.27;110246;1262;19557;-50
2022/05/28 00:46:01;;;;;;;;;4.00;4.00;;;;;22.18;42.26;100117.73;110251;1263;18404;-50
2022/05/28 00:48:29;;;;;;;;;4.00;2.00;;;;;22.18;42.26;100116.91;110306;1264;19193;-48
2022/05/28 00:50:56;;;;;;;;;2.00;2.00;;;;;22.17;42.26;100107.23;110227;1263;19559;-48
2022/05/28 00:53:23;;;;;;;;;4.67;4.00;;;;;22.16;42.25;100102.44;110225;1263;18439;-50
2022/05/28 00:55:50;;;;;;;;;2.00;2.00;;;;;22.15;42.41;100101.27;110269;1264;18868;-50
2022/05/28 00:58:18;;;;;;;;;4.00;4.00;;;;;22.15;42.33;100098.70;110268;1263;19491;-44
2022/05/28 01:00:45;;;;;;;;;5.67;5.00;;;;;22.16;42.54;100095.02;110278;1264;18533;-48
2022/05/28 01:03:13;;;;;;;;;4.00;4.00;;;;;22.16;42.46;100091.20;110308;1264;20221;-46
2022/05/28 01:05:40;;;;;;;;;2.00;2.00;;;;;22.15;42.23;100084.48;110218;1264;21957;-47
2022/05/28 01:08:07;;;;;;;;;3.33;3.33;;;;;22.16;42.38;100085.86;110310;1262;18441;-48
2022/05/28 01:10:34;;;;;;;;;4.33;2.00;;;;;22.16;42.42;100086.52;110274;1263;18925;-48
2022/05/28 01:13:14;;;;;;;;;4.00;4.00;;;;;22.16;42.26;100085.34;110215;1263;19717;-48
2022/05/28 01:15:41;;;;;;;;;3.00;3.00;;;;;22.16;42.48;100084.02;110117;1262;18572;-48
2022/05/28 01:18:08;;;;;;;;;2.00;2.00;;;;;22.16;42.38;100078.92;110344;1262;18812;-47
2022/05/28 01:20:36;;;;;;;;;4.00;4.00;;;;;22.17;42.23;100078.59;110308;1262;19862;-47
2022/05/28 01:23:03;;;;;;;;;4.00;4.00;;;;;22.16;42.36;100073.47;110295;1262;22994;-49
2022/05/28 01:25:30;;;;;;;;;4.00;2.00;;;;;22.16;42.40;100076.03;110300;1262;19017;-47
2022/05/28 01:27:57;;;;;;;;;2.00;2.00;;;;;22.17;42.28;100078.43;110292;1262;19625;-49
2022/05/28 01:30:24;;;;;;;;;4.67;4.00;;;;;22.17;42.23;100079.22;110279;1262;18509;-48
2022/05/28 01:32:52;;;;;;;;;3.00;3.00;;;;;22.17;42.28;100081.70;110364;1262;18998;-46
2022/05/28 01:35:19;;;;;;;;;3.33;2.00;;;;;22.17;42.30;100084.14;110307;1262;20497;-48
2022/05/28 01:37:46;;;;;;;;;2.00;2.00;;;;;22.16;42.51;100076.58;110293;1262;19240;-49
2022/05/28 01:40:13;;;;;;;;;4.00;3.33;;;;;22.16;42.32;100077.28;110317;1261;22793;-48
2022/05/28 01:42:40;;;;;;;;;5.00;4.00;;;;;22.17;42.28;100074.98;110289;1263;19553;-48
2022/05/28 01:45:08;;;;;;;;;2.00;2.00;;;;;22.16;42.20;100073.80;110392;1261;21145;-48
2022/05/28 01:47:35;;;;;;;;;2.67;2.00;;;;;22.16;42.43;100071.33;110308;1262;22846;-47
2022/05/28 01:50:02;;;;;;;;;4.33;4.00;;;;;22.16;42.25;100071.24;110280;1262;19614;-48
2022/05/28 01:52:30;;;;;;;;;4.00;4.00;;;;;22.16;42.40;100071.33;110326;1262;18411;-47
2022/05/28 01:54:57;;;;;;;;;4.00;2.00;;;;;22.16;42.40;100068.92;110268;1262;22855;-51
2022/05/28 01:57:24;;;;;;;;;2.00;2.00;;;;;22.17;42.56;100068.85;110287;1262;19846;-48
2022/05/28 01:59:51;;;;;;;;;5.33;3.33;;;;;22.14;42.45;100063.55;110398;1262;23417;-46
2022/05/28 02:02:18;;;;;;;;;3.33;2.67;;;;;22.14;42.33;100068.26;110306;1262;19216;-47
2022/05/28 02:04:46;;;;;;;;;2.00;2.00;;;;;22.14;42.42;100068.77;110294;1261;19648;-46
2022/05/28 02:07:13;;;;;;;;;2.00;2.00;;;;;22.15;42.48;100073.84;110301;1262;19932;-47
2022/05/28 02:09:40;;;;;;;;;2.00;2.00;;;;;22.14;42.42;100074.05;110267;1263;19013;-49
2022/05/28 02:12:07;;;;;;;;;4.00;4.00;;;;;22.14;42.31;100075.73;110310;1264;19528;-48
2022/05/28 02:14:34;;;;;;;;;5.00;5.00;;;;;22.14;42.47;100073.92;110316;1262;19294;-48
2022/05/28 02:17:02;;;;;;;;;4.00;4.00;;;;;22.13;42.54;100072.50;110295;1262;18855;-48
2022/05/28 02:19:29;;;;;;;;;4.00;4.00;;;;;22.15;42.33;100072.00;110320;1262;19526;-49
2022/05/28 02:21:56;;;;;;;;;4.00;4.00;;;;;22.13;42.45;100069.05;110291;1263;18547;-48
2022/05/28 02:24:23;;;;;;;;;4.00;4.00;;;;;22.13;42.42;100069.65;110282;1264;18862;-47
2022/05/28 02:26:51;;;;;;;;;4.00;4.00;;;;;22.13;42.36;100068.89;110299;1263;19891;-48
2022/05/28 02:29:18;;;;;;;;;4.00;4.00;;;;;22.13;42.47;100067.59;110288;1264;18527;-51
2022/05/28 02:31:45;;;;;;;;;3.33;3.33;;;;;22.16;42.48;100068.39;110296;1263;20026;-48
2022/05/28 02:34:12;;;;;;;;;2.00;2.00;;;;;22.17;42.43;100064.69;110307;1262;19478;-48
2022/05/28 02:36:40;;;;;;;;;4.50;3.00;;;;;22.17;42.27;100057.02;110324;1262;20893;-48
2022/05/28 02:39:07;;;;;;;;;5.00;5.00;;;;;22.19;42.43;100060.95;110267;1263;18715;-49
2022/05/28 02:41:34;;;;;;;;;2.00;2.00;;;;;22.18;42.32;100060.14;110262;1264;19655;-48
2022/05/28 02:44:02;;;;;;;;;2.00;2.00;;;;;22.18;42.32;100063.00;110296;1264;18345;-48
2022/05/28 02:46:30;;;;;;;;;2.00;2.00;;;;;22.17;42.38;100060.93;110281;1263;18657;-49
2022/05/28 02:48:57;;;;;;;;;5.00;4.00;;;;;22.17;42.31;100064.79;110260;1264;19674;-49
2022/05/28 02:51:25;;;;;;;;;2.67;2.67;;;;;22.16;42.34;100059.52;110284;1264;19080;-49
2022/05/28 02:53:52;;;;;;;;;2.00;2.00;;;;;22.16;42.44;100059.52;110251;1264;18969;-46
2022/05/28 02:56:19;;;;;;;;;3.33;2.67;;;;;22.16;42.53;100053.65;110258;1264;19698;-49
2022/05/28 02:58:46;;;;;;;;;4.00;4.00;;;;;22.15;42.48;100052.09;110278;1262;22866;-48
2022/05/28 03:01:13;;;;;;;;;2.00;2.00;;;;;22.16;42.42;100048.56;110293;1262;19021;-49
2022/05/28 03:03:41;;;;;;;;;4.00;2.00;;;;;22.17;42.45;100047.39;110266;1263;19540;-47
2022/05/28 03:06:08;;;;;;;;;3.33;2.00;;;;;22.16;42.36;100044.24;110359;1262;18453;-49
2022/05/28 03:08:35;;;;;;;;;2.00;2.00;;;;;22.15;42.42;100044.87;110323;1262;18941;-50
2022/05/28 03:11:02;;;;;;;;;2.67;2.67;;;;;22.16;42.33;100043.86;110299;1262;19600;-47
2022/05/28 03:13:29;;;;;;;;;4.00;4.00;;;;;22.15;42.43;100045.79;110289;1261;20913;-47
2022/05/28 03:15:57;;;;;;;;;4.50;3.00;;;;;22.15;42.41;100042.89;110295;1262;18819;-47
2022/05/28 03:18:24;;;;;;;;;2.00;2.00;;;;;22.14;42.35;100042.10;110298;1262;22019;-48
2022/05/28 03:20:51;;;;;;;;;4.00;4.00;;;;;22.14;42.39;100045.13;110340;1262;21846;-48
2022/05/28 03:23:18;;;;;;;;;2.00;2.00;;;;;22.15;42.43;100038.53;110229;1262;23036;-49
2022/05/28 03:25:45;;;;;;;;;2.00;2.00;;;;;22.14;42.45;100036.72;110275;1261;19804;-51
2022/05/28 03:28:13;;;;;;;;;4.00;2.00;;;;;22.15;42.29;100030.84;110299;1262;18508;-49
2022/05/28 03:30:40;;;;;;;;;2.00;2.00;;;;;22.15;42.31;100032.23;110318;1261;18758;-46
2022/05/28 03:33:07;;;;;;;;;2.00;2.00;;;;;22.15;42.26;100033.53;110333;1262;19486;-48
2022/05/28 03:35:34;;;;;;;;;2.67;2.00;;;;;22.17;42.19;100032.49;110271;1262;18720;-46
2022/05/28 03:38:02;;;;;;;;;2.67;2.67;;;;;22.17;42.32;100037.84;110280;1262;18772;-48
2022/05/28 03:40:29;;;;;;;;;2.00;2.00;;;;;22.17;42.21;100039.88;110248;1262;22966;-48
2022/05/28 03:42:56;;;;;;;;;2.00;2.00;;;;;22.17;42.18;100043.54;110289;1262;18616;-48
2022/05/28 03:45:23;;;;;;;;;4.00;2.00;;;;;22.17;42.21;100049.20;110318;1262;19029;-49
2022/05/28 03:47:51;;;;;;;;;2.00;2.00;;;;;22.16;42.20;100047.30;110349;1262;19794;-49
2022/05/28 03:50:18;;;;;;;;;3.33;3.33;;;;;22.16;42.21;100048.19;110302;1262;20342;-49
2022/05/28 03:52:45;;;;;;;;;3.33;2.00;;;;;22.16;42.32;100044.28;110336;1262;18988;-48
2022/05/28 03:55:13;;;;;;;;;2.67;2.67;;;;;22.16;42.13;100042.52;110303;1262;19556;-48
2022/05/28 03:57:40;;;;;;;;;2.00;2.00;;;;;22.18;42.21;100040.90;110335;1262;18889;-47
2022/05/28 04:00:07;;;;;;;;;4.00;4.00;;;;;22.17;42.20;100036.73;110308;1262;18751;-49
2022/05/28 04:02:35;;;;;;;;;2.00;2.00;;;;;22.17;42.32;100032.37;110309;1262;19680;-47
2022/05/28 04:05:04;;;;;;;;;3.33;2.67;;;;;22.17;42.11;100033.50;110288;1262;18716;-49
2022/05/28 04:07:31;;;;;;;;;5.00;4.00;;;;;22.17;42.19;100027.48;110311;1262;19003;-48
2022/05/28 04:09:58;;;;;;;;;4.00;4.00;;;;;22.16;42.28;100027.20;110268;1262;19599;-48
2022/05/28 04:12:25;;;;;;;;;2.67;2.67;;;;;22.17;42.07;100026.23;110373;1261;23218;-48
2022/05/28 04:14:52;;;;;;;;;4.00;3.33;;;;;22.16;42.05;100026.53;110324;1262;19042;-48
2022/05/28 04:17:20;;;;;;;;;2.00;2.00;;;;;22.17;42.07;100023.54;110300;1262;19500;-47
2022/05/28 04:19:47;;;;;;;;;2.00;2.00;;;;;22.16;42.07;100018.88;110309;1262;18477;-49
2022/05/28 04:22:14;;;;;;;;;2.00;2.00;;;;;22.16;42.09;100021.61;110313;1262;18897;-48
2022/05/28 04:24:41;;;;;;;;;2.00;2.00;;;;;22.16;42.11;100028.92;110295;1262;19585;-50
2022/05/28 04:27:08;;;;;;;;;2.00;2.00;;;;;22.17;41.92;100031.18;110348;1262;18466;-47
2022/05/28 04:29:36;;;;;;;;;2.00;2.00;;;;;22.17;42.10;100035.85;110317;1262;22974;-47
2022/05/28 04:32:03;;;;;;;;;4.00;2.67;;;;;22.17;42.06;100033.32;110346;1262;20339;-50
2022/05/28 04:34:30;;;;;;;;;2.00;2.00;;;;;22.16;41.96;100034.75;110257;1262;22348;-53
2022/05/28 04:36:57;;;;;;;;;2.00;2.00;;;;;22.16;42.12;100035.84;110294;1262;18878;-53
2022/05/28 04:39:25;;;;;;;;;2.00;2.00;;;;;22.16;42.10;100036.30;110309;1262;21172;-53
2022/05/28 04:41:52;;;;;;;;;2.00;2.00;;;;;22.16;42.03;100034.37;110266;1262;22878;-47
2022/05/28 04:44:19;;;;;;;;;2.67;2.67;;;;;22.16;42.13;100035.80;110292;1262;18936;-51
2022/05/28 04:46:46;;;;;;;;;4.00;4.00;;;;;22.15;42.18;100033.53;110288;1262;23330;-49
2022/05/28 04:49:13;;;;;;;;;3.33;3.33;;;;;22.16;42.18;100031.31;110267;1262;18827;-44
2022/05/28 04:51:41;;;;;;;;;2.00;2.00;;;;;22.16;42.03;100030.42;110338;1262;18827;-49
2022/05/28 04:54:08;;;;;;;;;2.00;2.00;;;;;22.16;41.99;100034.72;110277;1262;19829;-47
2022/05/28 04:56:35;;;;;;;;;2.00;2.00;;;;;22.17;42.12;100025.69;110258;1262;18493;-48
2022/05/28 04:59:03;;;;;;;;;2.00;2.00;;;;;22.17;42.00;100034.89;110240;1263;18731;-52
2022/05/28 05:01:30;;;;;;;;;2.00;2.00;;;;;22.18;41.96;100020.97;110261;1264;19801;-49
2022/05/28 05:03:57;;;;;;;;;3.33;2.00;;;;;22.19;41.96;100023.11;110255;1264;22707;-48
2022/05/28 05:06:24;;;;;;;;;2.00;2.00;;;;;22.19;41.99;100026.17;110220;1262;18891;-48
2022/05/28 05:08:51;;;;;;;;;4.00;2.00;;;;;22.19;41.94;100025.08;110309;1262;20105;-50
2022/05/28 05:11:19;;;;;;;;;2.00;2.00;;;;;22.18;42.06;100018.44;110231;1262;19050;-48
2022/05/28 05:13:46;;;;;;;;;2.67;2.67;;;;;22.19;41.97;100019.67;110200;1264;18688;-49
2022/05/28 05:16:13;;;;;;;;;3.33;3.33;;;;;22.20;42.06;100017.81;110244;1264;20216;-48
2022/05/28 05:18:40;;;;;;;;;3.33;3.33;;;;;22.19;41.86;100014.45;110274;1262;18621;-47
2022/05/28 05:21:07;;;;;;;;;4.00;3.33;;;;;22.21;42.08;100018.02;110228;1263;18874;-48
2022/05/28 05:23:35;;;;;;;;;4.00;4.00;;;;;22.23;41.78;100021.19;110246;1264;21228;-48
2022/05/28 05:26:02;;;;;;;;;2.00;2.00;;;;;22.23;41.79;100017.41;110165;1264;19322;-49
2022/05/28 05:28:29;;;;;;;;;2.00;2.00;;;;;22.24;41.90;100023.63;110273;1263;18878;-50
2022/05/28 05:30:56;;;;;;;;;5.00;5.00;;;;;22.25;41.88;100030.19;110252;1264;19627;-48
2022/05/28 05:33:23;;;;;;;;;4.67;4.67;;;;;22.25;42.02;100027.87;110268;1264;22109;-48
2022/05/28 05:35:51;;;;;;;;;2.00;2.00;;;;;22.24;41.97;100030.52;110302;1264;19110;-48
2022/05/28 05:38:18;;;;;;;;;3.33;3.33;;;;;22.24;41.90;100025.98;110252;1264;19561;-48
2022/05/28 05:40:45;;;;;;;;;4.00;3.00;;;;;22.25;41.58;100025.94;110282;1264;18499;-49
2022/05/28 05:43:12;;;;;;;;;2.00;2.00;;;;;22.24;41.83;100027.03;109773;1264;704076;-49
2022/05/28 05:45:39;;;;;;;;;2.00;2.00;;;;;22.22;41.94;100027.30;110266;1263;19610;-48
2022/05/28 05:48:08;;;;;;;;;2.00;2.00;;;;;22.24;41.90;100023.63;110339;1264;20259;-47
2022/05/28 05:50:35;;;;;;;;;4.00;4.00;;;;;22.24;42.04;100019.27;110202;1262;19080;-48
2022/05/28 05:53:03;;;;;;;;;4.00;4.00;;;;;22.26;41.84;100020.44;110274;1264;19798;-47
2022/05/28 05:55:30;;;;;;;;;4.00;4.00;;;;;22.27;41.96;100018.63;110295;1262;18672;-49
2022/05/28 05:57:57;;;;;;;;;4.00;4.00;;;;;22.32;42.30;100019.63;110267;1264;19039;-49
2022/05/28 06:00:24;;;;;;;;;4.00;4.00;;;;;22.36;42.61;100018.54;110279;1264;19645;-48
2022/05/28 06:02:51;;;;;;;;;4.00;4.00;;;;;22.36;42.47;100014.52;110257;1263;18414;-49
2022/05/28 06:05:19;;;;;;;;;2.67;2.67;;;;;22.33;42.35;100006.77;110248;1264;18734;-50
2022/05/28 06:07:46;;;;;;;;;5.00;4.33;;;;;22.33;42.45;100007.31;110081;1264;20928;-48
2022/05/28 06:10:13;;;;;;;;;4.00;4.00;;;;;22.32;42.33;100004.84;110150;1264;18433;-47
2022/05/28 06:12:40;;;;;;;;;5.33;5.00;;;;;22.36;42.49;100003.73;110293;1264;22251;-48
2022/05/28 06:15:08;;;;;;;;;4.00;4.00;;;;;22.39;42.35;99999.52;110322;1263;19855;-48
2022/05/28 06:17:35;;;;;;;;;2.67;2.67;;;;;22.42;41.99;99994.49;110286;1264;18505;-47
2022/05/28 06:20:03;;;;;;;;;4.50;4.00;;;;;22.41;42.16;100000.41;110184;1264;19938;-47
2022/05/28 06:22:30;;;;;;;;;5.00;5.00;;;;;22.27;41.10;99996.29;110222;1264;19550;-47
2022/05/28 06:24:57;;;;;;;;;5.00;5.00;;;;;22.08;40.69;100004.21;110230;1263;19834;-48
2022/05/28 06:27:24;;;;;;;;;5.00;5.00;;;;;21.90;39.77;99998.03;110257;1264;20099;-48
2022/05/28 06:29:52;;;;;;;;;4.00;4.00;;;;;21.76;39.44;99995.90;110216;1262;19564;-47
2022/05/28 06:32:19;;;;;;;;;5.00;5.00;;;;;21.82;40.00;99987.08;110165;1262;18768;-50
2022/05/28 06:34:47;;;;;;;;;4.00;4.00;;;;;22.00;40.98;99986.42;110170;1263;21499;-47
2022/05/28 06:37:15;;;;;;;;;5.00;5.00;;;;;22.18;40.65;99984.41;110217;1264;19632;-52
2022/05/28 06:39:42;;;;;;;;;5.50;5.00;;;;;22.25;40.53;99979.73;110046;1264;18568;-50
2022/05/28 06:42:09;;;;;;;;;6.00;6.00;;;;;22.32;40.56;99977.45;110181;1264;20376;-49
2022/05/28 06:44:36;;;;;;;;;5.00;4.00;;;;;22.37;41.47;99980.16;110171;1265;19650;-48
2022/05/28 06:47:04;;;;;;;;;4.00;4.00;;;;;22.42;42.32;99986.46;110171;1265;19993;-50
2022/05/28 06:49:31;;;;;;;;;6.00;6.00;;;;;22.41;42.55;100011.36;110188;1265;18756;-51
2022/05/28 06:51:59;;;;;;;;;8.33;6.00;;;;;22.18;41.90;100047.65;110236;1265;21021;-50
2022/05/28 06:54:26;;;;;;;;;5.00;5.00;;;;;21.87;42.15;100050.06;110228;1262;18539;-50
2022/05/28 06:56:53;;;;;;;;;5.50;5.50;;;;;22.04;43.32;100052.11;110178;1264;21768;-50
2022/05/28 06:59:21;;;;;;;;;8.00;6.00;;;;;22.18;44.28;100043.00;110220;1264;19498;-51
2022/05/28 07:01:48;;;;;;;;;6.00;6.00;;;;;22.27;44.83;100035.19;110083;1263;22272;-50
2022/05/28 07:04:15;;;;;;;;;8.33;7.33;;;;;22.37;44.58;100037.11;110197;1263;18983;-47
2022/05/28 07:06:42;;;;;;;;;5.67;5.67;;;;;22.44;44.26;100045.96;110246;1262;19573;-48
2022/05/28 07:09:10;;;;;;;;;8.33;6.00;;;;;22.47;44.21;100048.27;110297;1264;22869;-49
2022/05/28 07:11:37;;;;;;;;;5.00;5.00;;;;;22.50;44.44;100044.84;110244;1264;20931;-48
2022/05/28 07:14:04;;;;;;;;;5.67;5.67;;;;;22.52;44.30;100041.73;110256;1264;20860;-47
2022/05/28 07:16:31;;;;;;;;;4.00;4.00;;;;;22.52;44.60;100040.92;110215;1263;18374;-48
2022/05/28 07:18:58;;;;;;;;;5.00;5.00;;;;;22.50;44.41;100044.85;110242;1264;22213;-47
2022/05/28 07:21:26;;;;;;;;;9.00;5.33;;;;;22.51;44.28;100042.91;110187;1264;19965;-49
2022/05/28 07:23:54;;;;;;;;;8.67;7.00;;;;;22.51;44.18;100042.41;110265;1262;20138;-49
2022/05/28 07:26:21;;;;;;;;;5.67;5.33;;;;;22.51;44.23;100035.18;110297;1262;18786;-49
2022/05/28 07:28:49;;;;;;;;;5.00;5.00;;;;;22.52;44.34;100034.47;110253;1264;24117;-49
2022/05/28 07:31:17;;;;;;;;;5.00;5.00;;;;;22.58;44.20;100031.38;110287;1263;18517;-49
2022/05/28 07:33:44;;;;;;;;;6.00;6.00;;;;;22.63;44.05;100030.01;110262;1264;19063;-48
2022/05/28 07:36:11;;;;;;;;;6.00;6.00;;;;;22.65;44.07;100025.59;110260;1262;19525;-50
2022/05/28 07:38:39;;;;;;;;;5.00;5.00;;;;;22.68;44.22;100032.38;110272;1264;24115;-49
2022/05/28 07:41:06;;;;;;;;;5.00;3.00;;;;;22.71;44.28;100029.14;110224;1264;18604;-48
2022/05/28 07:43:33;;;;;;;;;6.00;6.00;;;;;22.74;44.12;100025.91;110277;1263;19782;-47
2022/05/28 07:46:00;;;;;;;;;5.00;5.00;;;;;22.74;44.29;100024.73;110208;1262;22816;-49
2022/05/28 07:48:28;;;;;;;;;5.50;5.00;;;;;22.76;44.35;100026.66;110226;1264;19242;-46
2022/05/28 07:50:55;;;;;;;;;7.00;6.00;;;;;22.72;44.36;100025.16;110147;1264;19677;-47
2022/05/28 07:53:23;;;;;;;;;5.00;5.00;;;;;22.64;44.20;100019.55;110095;1264;23961;-47
2022/05/28 07:55:50;;;;;;;;;6.00;6.00;;;;;22.59;44.18;100015.87;110259;1264;18847;-49
2022/05/28 07:58:18;;;;;;;;;5.00;5.00;;;;;22.57;44.20;100016.97;110230;1264;19622;-48
2022/05/28 08:00:46;;;;;;;;;6.00;5.00;;;;;22.56;44.32;100012.46;110196;1264;18514;-47
2022/05/28 08:03:13;;;;;;;;;6.00;5.00;;;;;22.53;44.09;100012.22;110266;1264;20374;-50
2022/05/28 08:05:40;;;;;;;;;5.00;5.00;;;;;22.54;44.09;100011.29;110055;1264;19554;-46
2022/05/28 08:08:07;;;;;;;;;5.67;5.00;;;;;22.52;43.90;100009.69;110197;1264;20013;-48
2022/05/28 08:10:34;;;;;;;;;5.33;5.00;;;;;22.51;44.01;100011.48;110238;1264;21177;-48
2022/05/28 08:13:02;;;;;;;;;3.00;3.00;;;;;22.49;44.10;100013.96;110237;1264;22710;-48
2022/05/28 08:15:29;;;;;;;;;5.00;5.00;;;;;22.46;44.08;100012.27;110250;1264;18636;-46
2022/05/28 08:17:56;;;;;;;;;6.00;6.00;;;;;22.47;44.02;100008.73;110214;1264;22821;-49
2022/05/28 08:23:08;;;;;;;;;6.00;6.00;;;;;22.47;43.91;100010.59;110200;1264;19560;-49
2022/05/28 08:23:11;;;;;;;;;5.67;5.33;;;;;22.46;43.76;100007.35;110201;1264;20059;-49
2022/05/28 08:25:39;;;;;;;;;3.00;3.00;;;;;22.49;43.60;100005.56;110179;1262;21149;-47
2022/05/28 08:28:07;;;;;;;;;5.00;3.00;;;;;22.50;43.60;100008.89;110236;1264;19449;-49
2022/05/28 08:30:34;;;;;;;;;5.00;5.00;;;;;22.51;43.68;100006.40;110273;1264;25524;-46
2022/05/28 08:33:01;;;;;;;;;8.00;5.00;;;;;22.51;43.58;100000.09;110320;1262;19490;-49
2022/05/28 08:35:28;;;;;;;;;3.33;3.33;;;;;22.53;43.59;100001.91;110323;1262;20794;-47
2022/05/28 08:37:56;;;;;;;;;5.00;5.00;;;;;22.53;43.56;100000.27;110333;1262;18524;-48
2022/05/28 08:40:23;;;;;;;;;5.00;3.67;;;;;22.53;43.44;99989.55;110293;1262;18729;-48
2022/05/28 08:42:51;;;;;;;;;3.00;3.00;;;;;22.56;43.51;99992.85;110294;1262;20144;-48
2022/05/28 08:45:18;;;;;;;;;3.00;3.00;;;;;22.59;43.40;99990.30;110354;1262;18434;-50
2022/05/28 08:47:45;;;;;;;;;7.00;5.00;;;;;22.59;43.43;99988.83;110259;1262;20071;-49
2022/05/28 08:50:12;;;;;;;;;5.00;3.00;;;;;22.59;43.47;99986.91;110167;1262;20687;-49
2022/05/28 08:52:40;;;;;;;;;3.00;3.00;;;;;22.58;43.50;99986.87;110215;1262;22105;-48
2022/05/28 08:55:07;;;;;;;;;6.00;6.00;;;;;22.58;43.60;99981.33;110301;1262;18652;-49
2022/05/28 08:57:34;;;;;;;;;4.67;4.00;;;;;22.60;43.75;99966.21;110296;1262;20816;-49
2022/05/28 09:00:01;;;;;;;;;4.00;4.00;;;;;22.59;43.60;99966.50;110342;1262;18733;-49
2022/05/28 09:02:29;;;;;;;;;4.00;3.00;;;;;22.58;43.81;99969.90;110286;1262;22811;-49
2022/05/28 09:04:56;;;;;;;;;3.00;3.00;;;;;22.58;43.85;99971.55;110263;1262;19825;-49
2022/05/28 09:07:23;;;;;;;;;7.33;6.00;;;;;22.56;43.91;99982.52;110283;1262;18412;-50
2022/05/28 09:09:50;;;;;;;;;3.00;3.00;;;;;22.54;44.00;99995.53;110269;1262;22428;-50
2022/05/28 09:12:17;;;;;;;;;3.00;3.00;;;;;22.53;43.94;100009.19;110346;1262;19713;-50
2022/05/28 09:14:45;;;;;;;;;5.00;5.00;;;;;22.48;43.88;100024.55;110324;1262;18487;-50
2022/05/28 09:17:12;;;;;;;;;5.00;5.00;;;;;22.48;43.84;100039.25;110309;1262;19024;-49
2022/05/28 09:19:39;;;;;;;;;5.00;4.67;;;;;22.45;43.65;100045.41;110285;1263;22907;-49
2022/05/28 09:22:06;;;;;;;;;6.00;6.00;;;;;22.43;43.74;100050.00;110280;1262;18656;-50
2022/05/28 09:24:33;;;;;;;;;3.00;3.00;;;;;22.42;43.48;100046.67;110301;1262;20382;-50
2022/05/28 09:27:01;;;;;;;;;5.00;3.00;;;;;22.41;43.74;100047.55;110305;1262;19517;-49
2022/05/28 09:29:29;;;;;;;;;7.00;6.50;;;;;22.41;43.58;100048.09;110320;1262;18713;-50
2022/05/28 09:31:56;;;;;;;;;3.00;3.00;;;;;22.39;43.54;100048.11;110284;1261;18759;-50
2022/05/28 09:34:23;;;;;;;;;3.00;3.00;;;;;22.40;43.38;100046.81;110327;1262;22356;-51
2022/05/28 09:36:50;;;;;;;;;5.00;5.00;;;;;22.39;43.32;100039.55;110278;1262;18497;-50
2022/05/28 09:39:18;;;;;;;;;3.00;3.00;;;;;22.40;43.31;100042.36;110342;1262;18897;-50
2022/05/28 09:41:45;;;;;;;;;3.67;3.00;;;;;22.40;43.27;100036.86;110292;1262;22708;-50
2022/05/28 09:44:14;;;;;;;;;4.50;3.00;;;;;22.41;43.46;100037.70;110276;1264;18504;-48
2022/05/28 09:46:41;;;;;;;;;5.00;3.00;;;;;22.41;43.36;100035.55;110321;1262;18687;-49
2022/05/28 09:49:10;;;;;;;;;5.00;5.00;;;;;22.43;43.27;100040.45;110301;1262;19801;-50
2022/05/28 09:51:37;;;;;;;;;4.00;4.00;;;;;22.41;43.04;100034.86;110156;1262;18479;-48
2022/05/28 09:54:20;;;;;;;;;4.00;4.00;;;;;22.39;43.14;100039.60;110250;1262;18905;-51
2022/05/28 09:56:47;;;;;;;;;4.00;4.00;;;;;22.13;42.97;100042.16;110337;1263;19626;-50
2022/05/28 09:59:14;;;;;;;;;5.00;5.00;;;;;21.73;43.20;100037.92;110235;1262;22156;-50
2022/05/28 10:01:42;;;;;;;;;2.00;2.00;;;;;21.35;43.90;100040.29;110248;1262;18928;-50
2022/05/28 10:06:54;;;;;;;;;4.00;4.00;;;;;21.13;44.44;100041.77;110281;1262;22195;-50
2022/05/28 10:09:21;;;;;;;;;3.33;3.33;;;;;21.04;44.40;100040.09;110335;1262;20176;-49
2022/05/28 10:11:48;;;;;;;;;4.00;4.00;;;;;20.94;44.48;100045.66;110236;1262;19764;-50
2022/05/28 10:14:15;;;;;;;;;5.00;4.67;;;;;20.83;44.72;100053.10;110316;1262;18703;-49
2022/05/28 10:16:46;;;;;;;;;4.00;4.00;;;;;20.81;44.42;100053.45;110309;1262;18843;-49
2022/05/28 10:19:13;;;;;;;;;3.33;3.33;;;;;20.74;44.39;100051.07;110294;1262;19698;-49
2022/05/28 10:21:40;;;;;;;;;2.67;2.67;;;;;20.70;44.06;100053.20;110281;1262;18479;-50
2022/05/28 10:24:07;;;;;;;;;4.00;4.00;;;;;20.70;43.86;100057.77;110336;1262;19331;-49
2022/05/28 10:26:36;;;;;;;;;3.00;3.00;;;;;20.74;43.78;100059.61;110175;1263;21470;-51
2022/05/28 10:29:03;;;;;;;;;5.00;4.00;;;;;20.73;43.59;100067.10;110261;1263;18645;-50
2022/05/28 10:31:31;;;;;;;;;2.67;2.67;;;;;20.73;43.43;100065.55;110324;1262;18741;-50
2022/05/28 10:33:58;;;;;;;;;4.00;4.00;;;;;20.74;43.35;100071.10;110300;1262;19691;-50
2022/05/28 10:36:25;;;;;;;;;2.67;2.67;;;;;20.73;43.30;100072.73;110293;1264;18714;-49
2022/05/28 10:38:52;;;;;;;;;2.00;2.00;;;;;20.71;43.35;100069.27;110229;1264;18823;-51
2022/05/28 10:41:20;;;;;;;;;3.00;2.67;;;;;20.65;43.64;100069.06;110246;1262;19766;-49
2022/05/28 10:43:47;;;;;;;;;2.67;2.67;;;;;20.68;43.34;100064.49;110269;1263;18596;-48
2022/05/28 10:46:14;;;;;;;;;4.00;2.67;;;;;20.67;43.52;100064.69;110289;1264;21704;-49
2022/05/28 10:48:41;;;;;;;;;2.00;2.00;;;;;20.70;43.44;100064.67;110318;1262;19785;-48
2022/05/28 10:51:11;;;;;;;;;4.00;4.00;;;;;20.67;43.35;100060.30;110293;1264;18615;-48
2022/05/28 10:53:38;;;;;;;;;5.00;5.00;;;;;20.63;43.50;100060.76;110289;1264;18901;-48
2022/05/28 10:56:06;;;;;;;;;4.00;4.00;;;;;20.58;43.59;100067.95;110274;1264;21847;-51
2022/05/28 10:58:33;;;;;;;;;4.00;4.00;;;;;20.55;43.70;100064.52;110285;1264;18504;-49
2022/05/28 11:01:00;;;;;;;;;5.00;4.00;;;;;20.52;43.75;100063.69;110272;1262;22251;-50
2022/05/28 11:03:30;;;;;;;;;4.00;4.00;;;;;20.51;43.77;100065.02;110293;1263;19976;-49
2022/05/28 11:05:58;;;;;;;;;4.00;4.00;;;;;20.55;43.67;100067.54;110309;1264;18599;-49
2022/05/28 11:08:26;;;;;;;;;5.67;4.00;;;;;20.56;43.74;100064.70;110233;1264;18726;-54
2022/05/28 11:10:53;;;;;;;;;4.00;4.00;;;;;20.57;43.65;100061.90;110251;1264;19734;-49
2022/05/28 11:13:21;;;;;;;;;5.00;4.00;;;;;20.51;44.02;100059.66;110241;1264;18650;-49
2022/05/28 11:15:49;;;;;;;;;5.00;5.00;;;;;20.53;43.94;100060.60;110259;1264;22000;-50
2022/05/28 11:18:17;;;;;;;;;3.33;3.33;;;;;20.54;43.85;100056.84;110283;1264;19889;-49
2022/05/28 11:20:44;;;;;;;;;6.33;5.67;;;;;20.59;43.85;100061.89;110108;1264;18535;-50